Time;durP1;ratioP1;P1;durP2;ratioP2;P2;SDS_P1;SDS_P2;PMS_P1;PMS_P2;Temp;Humidity;BMP_temperature;BMP_pressure;BME280_temperature;BME280_humidity;BME280_pressure;Samples;Min_cycle;Max_cycle;Signal;HPM_P1;HPM_P2
2022/04/02 00:02:04;;;;;;;5.07;2.70;;;;;;;;;;5096490;28;20291;-78
2022/04/02 00:04:31;;;;;;;6.80;2.70;;;;;;;;;;5095892;28;20198;-77
2022/04/02 00:06:59;;;;;;;7.33;3.00;;;;;;;;;;5106913;28;20224;-78
2022/04/02 00:09:26;;;;;;;8.10;2.93;;;;;;;;;;5095620;28;20272;-77
2022/04/02 00:11:54;;;;;;;5.97;3.30;;;;;;;;;;5090011;28;20292;-77
2022/04/02 00:14:21;;;;;;;6.17;2.70;;;;;;;;;;5079738;28;20255;-78
2022/04/02 00:16:49;;;;;;;7.03;2.80;;;;;;;;;;5085938;28;20274;-78
2022/04/02 00:19:16;;;;;;;6.80;2.60;;;;;;;;;;5072254;28;20226;-78
2022/04/02 00:21:43;;;;;;;9.67;3.27;;;;;;;;;;5084755;28;20202;-77
2022/04/02 00:24:10;;;;;;;6.13;2.70;;;;;;;;;;5082500;28;20239;-78
2022/04/02 00:26:37;;;;;;;4.23;2.60;;;;;;;;;;5091769;28;20239;-77
2022/04/02 00:29:10;;;;;;;6.73;2.50;;;;;;;;;;5085777;28;20235;-78
2022/04/02 00:31:37;;;;;;;6.50;2.50;;;;;;;;;;5087058;28;20202;-78
2022/04/02 00:34:04;;;;;;;5.60;2.30;;;;;;;;;;5072551;28;20317;-77
2022/04/02 00:36:37;;;;;;;5.77;2.47;;;;;;;;;;5088915;28;20238;-77
2022/04/02 00:39:04;;;;;;;5.87;2.40;;;;;;;;;;5091445;28;20208;-78
2022/04/02 00:41:31;;;;;;;4.10;2.37;;;;;;;;;;5086833;28;20236;-77
2022/04/02 00:44:00;;;;;;;6.47;2.50;;;;;;;;;;5088863;28;20234;-77
2022/04/02 00:46:28;;;;;;;7.77;2.50;;;;;;;;;;5072030;28;20236;-78
2022/04/02 00:48:55;;;;;;;3.70;2.20;;;;;;;;;;5072280;28;20227;-76
2022/04/02 00:51:23;;;;;;;5.40;2.40;;;;;;;;;;5084378;28;20628;-77
2022/04/02 00:53:51;;;;;;;5.00;2.33;;;;;;;;;;5092243;28;20270;-78
2022/04/02 00:56:19;;;;;;;3.27;1.87;;;;;;;;;;5090348;28;20684;-78
2022/04/02 00:58:46;;;;;;;6.83;2.40;;;;;;;;;;5092698;28;20252;-77
2022/04/02 01:01:14;;;;;;;6.37;2.27;;;;;;;;;;5089362;28;20247;-78
2022/04/02 01:03:43;;;;;;;8.23;2.20;;;;;;;;;;5071649;28;20297;-78
2022/04/02 01:06:10;;;;;;;4.50;2.43;;;;;;;;;;5076761;28;20198;-78
2022/04/02 01:08:38;;;;;;;5.93;2.50;;;;;;;;;;5102761;28;20233;-78
2022/04/02 01:11:05;;;;;;;7.50;2.07;;;;;;;;;;5112049;28;20289;-78
2022/04/02 01:13:32;;;;;;;6.83;2.43;;;;;;;;;;5112378;28;20643;-78
2022/04/02 01:15:59;;;;;;;6.47;2.30;;;;;;;;;;5116413;28;20640;-78
2022/04/02 01:18:27;;;;;;;5.87;2.20;;;;;;;;;;5119499;28;20235;-78
2022/04/02 01:20:55;;;;;;;6.63;2.40;;;;;;;;;;5119075;28;20242;-78
2022/04/02 01:23:29;;;;;;;5.33;2.30;;;;;;;;;;5111689;28;20285;-77
2022/04/02 01:25:57;;;;;;;5.17;2.40;;;;;;;;;;5098666;28;20557;-78
2022/04/02 01:28:24;;;;;;;4.43;2.47;;;;;;;;;;5113518;28;20203;-77
2022/04/02 01:30:52;;;;;;;7.10;2.57;;;;;;;;;;5119151;28;20291;-78
2022/04/02 01:33:19;;;;;;;5.30;2.40;;;;;;;;;;5103636;28;20742;-78
2022/04/02 01:35:46;;;;;;;5.33;2.50;;;;;;;;;;5099980;28;21074;-77
2022/04/02 01:38:13;;;;;;;5.80;2.30;;;;;;;;;;5118659;28;20195;-77
2022/04/02 01:40:42;;;;;;;6.03;2.50;;;;;;;;;;5112859;28;20595;-78
2022/04/02 01:43:09;;;;;;;5.87;2.60;;;;;;;;;;5106531;28;20235;-78
2022/04/02 01:45:36;;;;;;;5.27;2.60;;;;;;;;;;5119184;28;20235;-78
2022/04/02 01:48:04;;;;;;;6.63;2.63;;;;;;;;;;5118810;28;20233;-78
2022/04/02 01:50:31;;;;;;;5.33;2.67;;;;;;;;;;5118300;28;20289;-78
2022/04/02 01:52:58;;;;;;;4.20;2.70;;;;;;;;;;5115516;28;20645;-78
2022/04/02 01:55:25;;;;;;;6.77;2.80;;;;;;;;;;5118040;28;20215;-78
2022/04/02 01:57:54;;;;;;;4.63;2.50;;;;;;;;;;5110076;28;20200;-78
2022/04/02 02:00:21;;;;;;;4.40;2.50;;;;;;;;;;5113182;28;20268;-78
2022/04/02 02:02:48;;;;;;;5.90;2.67;;;;;;;;;;5118303;28;20568;-78
2022/04/02 02:05:16;;;;;;;5.17;2.83;;;;;;;;;;5117836;28;20247;-78
2022/04/02 02:07:50;;;;;;;7.47;2.70;;;;;;;;;;5102029;28;20270;-78
2022/04/02 02:10:18;;;;;;;6.10;2.80;;;;;;;;;;5102452;28;20285;-77
2022/04/02 02:12:46;;;;;;;4.17;2.70;;;;;;;;;;5117503;28;20263;-77
2022/04/02 02:15:17;;;;;;;5.73;2.97;;;;;;;;;;5098593;28;20229;-77
2022/04/02 02:17:45;;;;;;;6.63;2.73;;;;;;;;;;5097783;28;20205;-77
2022/04/02 02:20:13;;;;;;;6.67;2.60;;;;;;;;;;5114352;28;20230;-77
2022/04/02 02:22:40;;;;;;;3.70;2.63;;;;;;;;;;5102583;28;20203;-78
2022/04/02 02:25:08;;;;;;;5.13;2.80;;;;;;;;;;5105808;28;20287;-77
2022/04/02 02:27:35;;;;;;;4.00;2.30;;;;;;;;;;5106278;28;20224;-77
2022/04/02 02:30:02;;;;;;;6.87;2.63;;;;;;;;;;5099301;28;20221;-77
2022/04/02 02:32:36;;;;;;;4.63;2.70;;;;;;;;;;5112748;28;20710;-78
2022/04/02 02:37:49;;;;;;;5.33;2.73;;;;;;;;;;5093969;28;20571;-77
2022/04/02 02:40:16;;;;;;;7.00;2.97;;;;;;;;;;5099263;28;20223;-77
2022/04/02 02:42:43;;;;;;;4.20;2.70;;;;;;;;;;5102373;28;20283;-77
2022/04/02 02:45:11;;;;;;;5.23;2.67;;;;;;;;;;5114421;28;20240;-77
2022/04/02 02:47:39;;;;;;;8.50;3.03;;;;;;;;;;5115093;28;20236;-77
2022/04/02 02:50:08;;;;;;;5.63;2.77;;;;;;;;;;5114929;28;20243;-77
2022/04/02 02:52:35;;;;;;;3.37;2.70;;;;;;;;;;5102682;28;20925;-77
2022/04/02 02:55:02;;;;;;;5.90;2.60;;;;;;;;;;5094634;28;20221;-77
2022/04/02 02:57:29;;;;;;;7.90;2.90;;;;;;;;;;5095887;28;20284;-77
2022/04/02 02:59:56;;;;;;;6.07;3.27;;;;;;;;;;5098169;28;20304;-78
2022/04/02 03:02:24;;;;;;;5.87;2.93;;;;;;;;;;5105182;28;20235;-78
2022/04/02 03:04:52;;;;;;;7.33;2.97;;;;;;;;;;5094155;28;20232;-78
2022/04/02 03:07:20;;;;;;;4.27;2.93;;;;;;;;;;5097666;28;20290;-78
2022/04/02 03:09:47;;;;;;;6.63;3.33;;;;;;;;;;5114499;28;20291;-78
2022/04/02 03:12:15;;;;;;;7.97;3.20;;;;;;;;;;5114497;28;20292;-77
2022/04/02 03:14:42;;;;;;;5.77;3.20;;;;;;;;;;5095609;28;20762;-78
2022/04/02 03:17:09;;;;;;;5.87;2.93;;;;;;;;;;5106592;28;20737;-77
2022/04/02 03:19:36;;;;;;;6.53;3.23;;;;;;;;;;5114241;28;20262;-77
2022/04/02 03:22:05;;;;;;;5.97;3.07;;;;;;;;;;5103323;28;20254;-77
2022/04/02 03:24:32;;;;;;;6.77;3.40;;;;;;;;;;5101924;28;20218;-78
2022/04/02 03:26:59;;;;;;;7.83;3.07;;;;;;;;;;5096353;28;20200;-77
2022/04/02 03:29:28;;;;;;;6.13;2.93;;;;;;;;;;5096539;28;20234;-78
2022/04/02 03:31:55;;;;;;;4.27;3.10;;;;;;;;;;5094220;28;20201;-78
2022/04/02 03:34:23;;;;;;;3.57;2.97;;;;;;;;;;5094377;28;20231;-77
2022/04/02 03:36:50;;;;;;;5.53;3.20;;;;;;;;;;5098766;28;20282;-77
2022/04/02 03:39:18;;;;;;;7.93;3.40;;;;;;;;;;5097589;28;20279;-77
2022/04/02 03:41:46;;;;;;;7.00;3.33;;;;;;;;;;5095912;28;20236;-78
2022/04/02 03:44:13;;;;;;;9.77;3.20;;;;;;;;;;5093881;28;20201;-78
2022/04/02 03:49:25;;;;;;;7.13;3.60;;;;;;;;;;5097766;28;20208;-77
2022/04/02 03:51:52;;;;;;;5.13;3.30;;;;;;;;;;5093064;28;20200;-77
2022/04/02 03:54:21;;;;;;;4.17;3.07;;;;;;;;;;5093151;28;20242;-77
2022/04/02 03:56:48;;;;;;;6.27;3.50;;;;;;;;;;5109278;28;20315;-77
2022/04/02 03:59:16;;;;;;;4.40;3.43;;;;;;;;;;5113605;28;20310;-78
2022/04/02 04:01:44;;;;;;;7.07;3.03;;;;;;;;;;5113461;28;20207;-77
2022/04/02 04:04:12;;;;;;;5.10;3.10;;;;;;;;;;5103032;28;20195;-77
2022/04/02 04:06:39;;;;;;;6.43;3.60;;;;;;;;;;5093102;28;20256;-78
2022/04/02 04:09:06;;;;;;;5.70;3.23;;;;;;;;;;5092864;28;20326;-77
2022/04/02 04:11:35;;;;;;;6.77;3.07;;;;;;;;;;5093181;28;20238;-78
2022/04/02 04:14:02;;;;;;;6.57;3.43;;;;;;;;;;5113139;28;20240;-77
2022/04/02 04:16:30;;;;;;;5.77;3.00;;;;;;;;;;5108097;28;20260;-78
2022/04/02 04:18:57;;;;;;;5.07;3.50;;;;;;;;;;5108309;28;20787;-78
2022/04/02 04:21:24;;;;;;;5.73;3.10;;;;;;;;;;5102363;28;20637;-77
2022/04/02 04:23:52;;;;;;;5.63;2.80;;;;;;;;;;5093484;28;20200;-78
2022/04/02 04:26:19;;;;;;;7.20;2.77;;;;;;;;;;5093112;28;20192;-77
2022/04/02 04:28:48;;;;;;;5.70;3.13;;;;;;;;;;5106554;28;20280;-78
2022/04/02 04:31:17;;;;;;;6.10;3.00;;;;;;;;;;5092939;28;20230;-77
2022/04/02 04:33:44;;;;;;;5.33;3.17;;;;;;;;;;5107202;28;20196;-78
2022/04/02 04:36:12;;;;;;;7.93;3.30;;;;;;;;;;5112722;28;20698;-78
2022/04/02 04:38:39;;;;;;;6.60;3.50;;;;;;;;;;5113361;28;20211;-78
2022/04/02 04:41:06;;;;;;;4.07;3.03;;;;;;;;;;5113151;28;20291;-78
2022/04/02 04:43:34;;;;;;;6.53;3.30;;;;;;;;;;5113148;28;20663;-77
2022/04/02 04:46:03;;;;;;;7.43;3.20;;;;;;;;;;5113044;28;20243;-78
2022/04/02 04:48:31;;;;;;;5.87;3.10;;;;;;;;;;5111836;28;20691;-78
2022/04/02 04:50:58;;;;;;;6.07;3.20;;;;;;;;;;5111539;28;20222;-77
2022/04/02 04:53:26;;;;;;;6.30;3.17;;;;;;;;;;5112789;28;20224;-77
2022/04/02 04:55:53;;;;;;;5.57;3.33;;;;;;;;;;5105296;28;20262;-77
2022/04/02 04:58:20;;;;;;;5.20;2.90;;;;;;;;;;5092105;28;20224;-78
2022/04/02 05:00:48;;;;;;;4.43;2.90;;;;;;;;;;5092986;28;20612;-78
2022/04/02 05:03:16;;;;;;;7.80;3.13;;;;;;;;;;5097711;28;20293;-77
2022/04/02 05:05:43;;;;;;;5.00;2.80;;;;;;;;;;5110855;28;20278;-78
2022/04/02 05:08:11;;;;;;;5.30;3.57;;;;;;;;;;5108208;28;20228;-78
2022/04/02 05:10:40;;;;;;;3.97;2.90;;;;;;;;;;5113009;28;20198;-77
2022/04/02 05:13:09;;;;;;;4.60;2.87;;;;;;;;;;5112895;28;20558;-77
2022/04/02 05:15:36;;;;;;;6.00;3.23;;;;;;;;;;5094892;28;20642;-77
2022/04/02 05:18:04;;;;;;;5.10;3.27;;;;;;;;;;5092324;28;20212;-78
2022/04/02 05:20:33;;;;;;;7.07;3.10;;;;;;;;;;5092332;28;20209;-78
2022/04/02 05:23:00;;;;;;;8.37;3.33;;;;;;;;;;5110495;28;20614;-77
2022/04/02 05:25:28;;;;;;;5.70;3.23;;;;;;;;;;5101116;28;20280;-77
2022/04/02 05:27:55;;;;;;;6.80;3.03;;;;;;;;;;5103538;28;20302;-78
2022/04/02 05:30:22;;;;;;;5.80;3.13;;;;;;;;;;5112422;28;20201;-77
2022/04/02 05:32:50;;;;;;;6.33;3.17;;;;;;;;;;5099290;28;20554;-77
2022/04/02 05:35:18;;;;;;;7.40;2.97;;;;;;;;;;5107380;28;20203;-77
2022/04/02 05:37:47;;;;;;;6.67;3.10;;;;;;;;;;5111855;28;20246;-77
2022/04/02 05:40:14;;;;;;;9.70;3.73;;;;;;;;;;5112341;28;20739;-77
2022/04/02 05:42:42;;;;;;;7.17;3.23;;;;;;;;;;5112077;28;20690;-77
2022/04/02 05:45:09;;;;;;;7.53;3.47;;;;;;;;;;5109165;28;20649;-77
2022/04/02 05:47:43;;;;;;;6.77;3.50;;;;;;;;;;5091098;28;20688;-77
2022/04/02 05:50:11;;;;;;;8.83;3.47;;;;;;;;;;5104690;28;20289;-77
2022/04/02 05:52:39;;;;;;;5.87;3.70;;;;;;;;;;5111582;28;20287;-77
2022/04/02 05:55:08;;;;;;;6.60;3.57;;;;;;;;;;5111112;28;20206;-78
2022/04/02 05:57:36;;;;;;;6.20;3.73;;;;;;;;;;5112308;28;20260;-77
2022/04/02 06:00:04;;;;;;;7.73;3.83;;;;;;;;;;5106137;28;20298;-77
2022/04/02 06:02:32;;;;;;;7.87;3.53;;;;;;;;;;5093377;28;20203;-77
2022/04/02 06:04:59;;;;;;;6.67;3.37;;;;;;;;;;5095877;28;20225;-77
2022/04/02 06:07:27;;;;;;;5.93;3.30;;;;;;;;;;5101397;28;20220;-77
2022/04/02 06:09:54;;;;;;;11.53;3.63;;;;;;;;;;5080682;28;20609;-77
2022/04/02 06:12:22;;;;;;;12.33;3.93;;;;;;;;;;5078505;28;20194;-77
2022/04/02 06:14:50;;;;;;;5.73;3.37;;;;;;;;;;5080695;28;20245;-78
2022/04/02 06:17:17;;;;;;;7.03;3.20;;;;;;;;;;5075868;28;20214;-77
2022/04/02 06:19:44;;;;;;;6.13;3.50;;;;;;;;;;5079734;28;20223;-78
2022/04/02 06:22:11;;;;;;;6.87;3.30;;;;;;;;;;5085868;28;20286;-77
2022/04/02 06:24:38;;;;;;;8.47;3.90;;;;;;;;;;5075689;28;20226;-77
2022/04/02 06:27:06;;;;;;;5.70;3.50;;;;;;;;;;5075463;28;20244;-78
2022/04/02 06:29:35;;;;;;;7.93;3.30;;;;;;;;;;5083395;28;20287;-78
2022/04/02 06:32:02;;;;;;;8.17;3.30;;;;;;;;;;5084596;28;20289;-78
2022/04/02 06:34:29;;;;;;;5.70;3.40;;;;;;;;;;5094597;28;20275;-77
2022/04/02 06:36:57;;;;;;;6.17;3.47;;;;;;;;;;5088049;28;20211;-77
2022/04/02 06:39:24;;;;;;;8.17;3.33;;;;;;;;;;5074497;28;20199;-78
2022/04/02 06:41:51;;;;;;;6.60;3.43;;;;;;;;;;5074654;28;20329;-79
2022/04/02 06:44:18;;;;;;;5.47;3.20;;;;;;;;;;5085463;28;20661;-78
2022/04/02 06:46:47;;;;;;;7.47;3.20;;;;;;;;;;5086958;28;20200;-78
2022/04/02 06:49:14;;;;;;;7.80;3.23;;;;;;;;;;5094597;28;20224;-77
2022/04/02 06:51:41;;;;;;;4.27;2.63;;;;;;;;;;5082853;28;20231;-79
2022/04/02 06:54:09;;;;;;;6.87;3.13;;;;;;;;;;5088752;28;20224;-78
2022/04/02 06:56:36;;;;;;;4.40;2.90;;;;;;;;;;5088110;28;20220;-77
2022/04/02 06:59:03;;;;;;;6.87;2.63;;;;;;;;;;5094117;28;20225;-78
2022/04/02 07:01:31;;;;;;;3.83;2.47;;;;;;;;;;5089278;28;20293;-78
2022/04/02 07:03:59;;;;;;;5.73;2.40;;;;;;;;;;5087667;28;20222;-78
2022/04/02 07:06:26;;;;;;;3.70;2.47;;;;;;;;;;5057088;28;20252;-78
2022/04/02 07:08:54;;;;;;;4.50;2.80;;;;;;;;;;5094234;28;20222;-79
2022/04/02 07:11:21;;;;;;;6.07;2.87;;;;;;;;;;5097627;28;20245;-79
2022/04/02 07:13:48;;;;;;;4.47;2.37;;;;;;;;;;5104426;28;20273;-79
2022/04/02 07:16:16;;;;;;;4.40;2.47;;;;;;;;;;5093369;28;20305;-79
2022/04/02 07:18:44;;;;;;;5.37;2.70;;;;;;;;;;5095834;28;20193;-79
2022/04/02 07:21:13;;;;;;;5.83;2.80;;;;;;;;;;5102231;28;20229;-78
2022/04/02 07:23:42;;;;;;;5.80;2.40;;;;;;;;;;5110019;28;20221;-77
2022/04/02 07:26:09;;;;;;;4.70;2.60;;;;;;;;;;5090054;28;20187;-79
2022/04/02 07:28:38;;;;;;;6.07;2.63;;;;;;;;;;5104237;28;20673;-79
2022/04/02 07:31:05;;;;;;;5.07;2.40;;;;;;;;;;5109254;28;20657;-79
2022/04/02 07:33:32;;;;;;;3.60;2.17;;;;;;;;;;5107855;28;20291;-79
2022/04/02 07:36:04;;;;;;;4.13;2.60;;;;;;;;;;5112197;28;20197;-79
2022/04/02 07:38:36;;;;;;;4.63;2.47;;;;;;;;;;5101757;28;20197;-79
2022/04/02 07:41:07;;;;;;;5.13;2.37;;;;;;;;;;5103551;28;20552;-79
2022/04/02 07:43:38;;;;;;;7.17;2.90;;;;;;;;;;5098147;28;20229;-78
2022/04/02 07:46:07;;;;;;;4.07;2.37;;;;;;;;;;5106637;28;20194;-79
2022/04/02 07:48:37;;;;;;;6.53;2.73;;;;;;;;;;5111855;28;20276;-79
2022/04/02 07:51:09;;;;;;;4.75;2.50;;;;;;;;;;5106909;28;20273;-80
2022/04/02 07:53:43;;;;;;;4.38;2.45;;;;;;;;;;5093139;28;20203;-79
2022/04/02 07:56:14;;;;;;;6.18;2.50;;;;;;;;;;5104610;28;20254;-79
2022/04/02 07:58:45;;;;;;;7.05;2.78;;;;;;;;;;5107143;28;20297;-80
2022/04/02 08:01:14;;;;;;;4.30;2.28;;;;;;;;;;5103389;28;20197;-79
2022/04/02 08:03:44;;;;;;;4.32;2.28;;;;;;;;;;5094112;28;20195;-80
2022/04/02 08:06:11;;;;;;;3.53;2.50;;;;;;;;;;5102163;28;20206;-78
2022/04/02 08:08:40;;;;;;;5.35;2.05;;;;;;;;;;5106541;28;20225;-78
2022/04/02 08:11:09;;;;;;;6.78;2.15;;;;;;;;;;5108095;28;20288;-78
2022/04/02 08:13:36;;;;;;;4.93;1.73;;;;;;;;;;5104063;28;20661;-78
2022/04/02 08:16:04;;;;;;;5.68;2.20;;;;;;;;;;5106171;28;20292;-78
2022/04/02 08:18:32;;;;;;;6.72;2.17;;;;;;;;;;5106773;28;20241;-80
2022/04/02 08:20:59;;;;;;;7.05;2.03;;;;;;;;;;5098996;28;20538;-76
2022/04/02 08:23:26;;;;;;;2.80;1.55;;;;;;;;;;5112082;28;20228;-78
2022/04/02 08:26:01;;;;;;;5.53;2.00;;;;;;;;;;5101232;28;20222;-78
2022/04/02 08:28:33;;;;;;;4.00;1.88;;;;;;;;;;5100173;28;20236;-78
2022/04/02 08:31:04;;;;;;;3.13;1.40;;;;;;;;;;5105638;28;20293;-78
2022/04/02 08:33:44;;;;;;;4.68;1.77;;;;;;;;;;5098883;28;20264;-78
2022/04/02 08:36:17;;;;;;;2.95;1.48;;;;;;;;;;5097941;28;20209;-78
2022/04/02 08:38:47;;;;;;;7.03;2.00;;;;;;;;;;5099619;28;20198;-78
2022/04/02 08:41:29;;;;;;;3.95;1.80;;;;;;;;;;5101566;28;20201;-79
2022/04/02 08:44:18;;;;;;;2.55;1.55;;;;;;;;;;5098996;28;20281;-78
2022/04/02 08:47:03;;;;;;;5.68;1.90;;;;;;;;;;5101088;28;20190;-77
2022/04/02 08:49:39;;;;;;;2.05;1.33;;;;;;;;;;5103427;28;20229;-77
2022/04/02 08:52:21;;;;;;;4.20;1.80;;;;;;;;;;5103735;28;20290;-76
2022/04/02 08:54:55;;;;;;;4.85;1.80;;;;;;;;;;5100007;28;20193;-76
2022/04/02 08:57:28;;;;;;;4.23;1.60;;;;;;;;;;5100105;28;20222;-76
2022/04/02 09:00:03;;;;;;;3.93;1.50;;;;;;;;;;5092391;28;20250;-77
2022/04/02 09:02:49;;;;;;;5.00;1.77;;;;;;;;;;5097351;28;20190;-78
2022/04/02 09:05:23;;;;;;;4.20;1.50;;;;;;;;;;5098766;28;21687;-79
2022/04/02 09:08:20;;;;;;;2.73;1.43;;;;;;;;;;5097504;28;20213;-80
2022/04/02 09:10:58;;;;;;;3.67;1.40;;;;;;;;;;5098799;28;20198;-79
2022/04/02 09:13:57;;;;;;;3.30;1.67;;;;;;;;;;5101885;28;20236;-78
2022/04/02 09:16:28;;;;;;;3.80;1.40;;;;;;;;;;5038015;28;20200;-77
2022/04/02 09:19:06;;;;;;;3.70;1.77;;;;;;;;;;5048945;28;20262;-77
2022/04/02 09:21:40;;;;;;;2.73;1.40;;;;;;;;;;5048338;28;20563;-76
2022/04/02 09:24:10;;;;;;;3.30;1.20;;;;;;;;;;5044622;28;20227;-79
2022/04/02 09:26:55;;;;;;;2.47;1.10;;;;;;;;;;5048899;28;20371;-79
2022/04/02 09:29:27;;;;;;;5.43;1.40;;;;;;;;;;5049119;28;20200;-79
2022/04/02 09:32:10;;;;;;;3.20;1.40;;;;;;;;;;5048805;28;20277;-78
2022/04/02 09:35:01;;;;;;;6.10;1.60;;;;;;;;;;5048186;28;20780;-78
2022/04/02 09:37:38;;;;;;;2.13;1.20;;;;;;;;;;5051664;28;20310;-79
2022/04/02 09:40:06;;;;;;;2.33;1.37;;;;;;;;;;5052204;28;20286;-77
2022/04/02 09:42:37;;;;;;;3.13;1.10;;;;;;;;;;5052910;28;20728;-77
2022/04/02 09:45:08;;;;;;;4.10;1.30;;;;;;;;;;5044865;28;20203;-78
2022/04/02 09:47:50;;;;;;;3.53;1.47;;;;;;;;;;5052769;28;20203;-79
2022/04/02 09:50:19;;;;;;;4.03;1.70;;;;;;;;;;5066893;28;20276;-78
2022/04/02 09:52:48;;;;;;;5.40;1.70;;;;;;;;;;5099053;28;20290;-78
2022/04/02 09:55:15;;;;;;;3.97;1.60;;;;;;;;;;5106477;28;20202;-78
2022/04/02 09:57:53;;;;;;;4.03;2.40;;;;;;;;;;5115559;28;20245;-78
2022/04/02 10:00:21;;;;;;;2.83;1.17;;;;;;;;;;5096723;28;20740;-79
2022/04/02 10:03:02;;;;;;;3.30;1.00;;;;;;;;;;5102677;28;20198;-79
2022/04/02 10:05:37;;;;;;;2.20;1.00;;;;;;;;;;5107434;28;20711;-78
2022/04/02 10:08:06;;;;;;;3.50;0.90;;;;;;;;;;5097734;28;20616;-78
2022/04/02 10:10:33;;;;;;;1.40;1.00;;;;;;;;;;5110624;28;20222;-79
2022/04/02 10:13:02;;;;;;;2.47;1.00;;;;;;;;;;5103988;28;20204;-78
2022/04/02 10:15:30;;;;;;;2.33;1.00;;;;;;;;;;5104362;28;20310;-79
2022/04/02 10:17:59;;;;;;;1.63;1.10;;;;;;;;;;5115899;28;20271;-79
2022/04/02 10:20:30;;;;;;;2.70;1.30;;;;;;;;;;5115812;28;20198;-79
2022/04/02 10:23:08;;;;;;;3.10;1.10;;;;;;;;;;5115399;28;20595;-79
2022/04/02 10:25:43;;;;;;;2.10;1.13;;;;;;;;;;5115416;28;20261;-79
2022/04/02 10:28:15;;;;;;;4.67;1.80;;;;;;;;;;5114007;28;20224;-79
2022/04/02 10:30:45;;;;;;;6.03;1.70;;;;;;;;;;5101712;28;20207;-79
2022/04/02 10:33:27;;;;;;;3.20;1.20;;;;;;;;;;5094937;28;20209;-79
2022/04/02 10:35:55;;;;;;;2.47;1.20;;;;;;;;;;5098327;28;20232;-79
2022/04/02 10:38:34;;;;;;;3.80;1.47;;;;;;;;;;5096071;28;20311;-78
2022/04/02 10:41:05;;;;;;;3.47;1.30;;;;;;;;;;5108712;28;20217;-81
2022/04/02 10:43:34;;;;;;;3.70;1.13;;;;;;;;;;5114384;28;20708;-79
2022/04/02 10:46:04;;;;;;;3.40;1.20;;;;;;;;;;5109752;28;20202;-79
2022/04/02 10:48:37;;;;;;;2.90;1.07;;;;;;;;;;5112157;28;20204;-80
2022/04/02 10:51:04;;;;;;;2.70;1.20;;;;;;;;;;5100593;28;20288;-80
2022/04/02 10:53:36;;;;;;;1.90;1.00;;;;;;;;;;5095723;28;20281;-79
2022/04/02 10:56:05;;;;;;;2.43;1.23;;;;;;;;;;5104078;28;20204;-79
2022/04/02 10:58:36;;;;;;;4.60;1.30;;;;;;;;;;5111623;28;20597;-79
2022/04/02 11:01:04;;;;;;;4.93;1.60;;;;;;;;;;5094961;28;20198;-80
2022/04/02 11:03:35;;;;;;;5.33;1.47;;;;;;;;;;5094454;28;20564;-79
2022/04/02 11:06:03;;;;;;;2.47;1.50;;;;;;;;;;5102101;28;20288;-79
2022/04/02 11:08:31;;;;;;;3.33;1.63;;;;;;;;;;5105652;28;20307;-79
2022/04/02 11:11:00;;;;;;;3.90;1.57;;;;;;;;;;5104781;28;20197;-79
2022/04/02 11:13:32;;;;;;;4.70;1.50;;;;;;;;;;5106748;28;20230;-80
2022/04/02 11:16:00;;;;;;;2.83;1.10;;;;;;;;;;5111562;28;20206;-79
2022/04/02 11:18:27;;;;;;;3.63;1.27;;;;;;;;;;5105416;28;20249;-78
2022/04/02 11:21:02;;;;;;;2.47;1.10;;;;;;;;;;5112954;28;20281;-78
2022/04/02 11:23:41;;;;;;;2.50;1.20;;;;;;;;;;5113491;28;20280;-78
2022/04/02 11:26:11;;;;;;;5.87;1.40;;;;;;;;;;5105364;28;20243;-77
2022/04/02 11:28:45;;;;;;;3.17;1.17;;;;;;;;;;5094869;28;20270;-77
2022/04/02 11:31:13;;;;;;;2.17;1.10;;;;;;;;;;5104822;28;20205;-77
2022/04/02 11:33:51;;;;;;;2.43;0.90;;;;;;;;;;5113249;28;20197;-78
2022/04/02 11:36:23;;;;;;;2.77;1.40;;;;;;;;;;5108500;28;20930;-78
2022/04/02 11:38:52;;;;;;;3.40;1.03;;;;;;;;;;5100890;28;20658;-78
2022/04/02 11:41:21;;;;;;;4.57;1.03;;;;;;;;;;5102218;28;20237;-78
2022/04/02 11:43:51;;;;;;;2.73;1.00;;;;;;;;;;5100632;28;20193;-78
2022/04/02 11:46:19;;;;;;;1.10;0.70;;;;;;;;;;5108164;28;20724;-78
2022/04/02 11:48:54;;;;;;;3.37;0.87;;;;;;;;;;5101006;28;20190;-78
2022/04/02 11:51:22;;;;;;;2.87;1.10;;;;;;;;;;5101604;28;20573;-78
2022/04/02 11:53:49;;;;;;;4.87;1.07;;;;;;;;;;5107587;28;20246;-78
2022/04/02 11:56:28;;;;;;;4.23;1.10;;;;;;;;;;5098998;28;20642;-78
2022/04/02 11:58:56;;;;;;;2.67;1.07;;;;;;;;;;5106072;28;20217;-77
2022/04/02 12:01:23;;;;;;;3.90;1.20;;;;;;;;;;5100651;28;20198;-77
2022/04/02 12:04:07;;;;;;;3.60;1.30;;;;;;;;;;5093187;28;20682;-78
2022/04/02 12:06:35;;;;;;;2.93;1.20;;;;;;;;;;5095993;28;20621;-78
2022/04/02 12:09:10;;;;;;;2.10;0.87;;;;;;;;;;5111472;28;20231;-78
2022/04/02 12:11:38;;;;;;;2.27;1.10;;;;;;;;;;5106266;28;20279;-78
2022/04/02 12:14:06;;;;;;;3.43;1.10;;;;;;;;;;5105604;28;20227;-78
2022/04/02 12:16:34;;;;;;;2.70;1.20;;;;;;;;;;5112171;28;20661;-78
2022/04/02 12:19:03;;;;;;;1.77;1.10;;;;;;;;;;5097339;28;20266;-77
2022/04/02 12:21:34;;;;;;;2.47;1.13;;;;;;;;;;5112054;28;20589;-77
2022/04/02 12:24:03;;;;;;;4.37;1.30;;;;;;;;;;5100203;28;20237;-78
2022/04/02 12:26:30;;;;;;;3.00;1.00;;;;;;;;;;5093037;28;20632;-77
2022/04/02 12:29:00;;;;;;;4.17;1.00;;;;;;;;;;5112511;28;20675;-79
2022/04/02 12:31:28;;;;;;;3.07;0.90;;;;;;;;;;5112859;28;20229;-78
2022/04/02 12:33:55;;;;;;;2.73;1.13;;;;;;;;;;5113444;28;20201;-77
2022/04/02 12:36:30;;;;;;;2.40;0.87;;;;;;;;;;5113728;28;20273;-77
2022/04/02 12:39:00;;;;;;;2.40;0.90;;;;;;;;;;5098948;28;20217;-78
2022/04/02 12:41:28;;;;;;;3.83;1.20;;;;;;;;;;5100205;28;20228;-78
2022/04/02 12:44:00;;;;;;;2.33;1.20;;;;;;;;;;5095954;28;20232;-78
2022/04/02 12:46:29;;;;;;;3.73;1.33;;;;;;;;;;5103940;28;20285;-78
2022/04/02 12:48:57;;;;;;;3.17;1.10;;;;;;;;;;5103123;28;20236;-78
2022/04/02 12:51:24;;;;;;;2.67;1.10;;;;;;;;;;5098160;28;20247;-77
2022/04/02 12:53:58;;;;;;;4.33;1.13;;;;;;;;;;5108938;28;20197;-77
2022/04/02 12:56:27;;;;;;;2.43;1.10;;;;;;;;;;5095743;28;20633;-79
2022/04/02 12:58:54;;;;;;;2.57;1.03;;;;;;;;;;5108334;28;20692;-79
2022/04/02 13:01:29;;;;;;;5.20;1.03;;;;;;;;;;5097206;28;20225;-79
2022/04/02 13:04:07;;;;;;;4.97;1.30;;;;;;;;;;5102724;28;20936;-78
2022/04/02 13:06:35;;;;;;;4.00;1.27;;;;;;;;;;5097941;28;20327;-79
2022/04/02 13:09:04;;;;;;;27.73;18.10;;;;;;;;;;5109271;28;20600;-76
2022/04/02 13:11:33;;;;;;;23.10;12.93;;;;;;;;;;5097930;28;20673;-76
2022/04/02 13:14:04;;;;;;;41.30;21.57;;;;;;;;;;5099739;28;20292;-78
2022/04/02 13:16:36;;;;;;;73.50;43.23;;;;;;;;;;5098502;28;20271;-78
2022/04/02 13:21:50;;;;;;;4.13;3.07;;;;;;;;;;5105212;28;20244;-78
2022/04/02 13:24:31;;;;;;;53.63;40.40;;;;;;;;;;5099374;28;20714;-78
2022/04/02 13:27:13;;;;;;;9.27;7.20;;;;;;;;;;5096033;28;20216;-79
2022/04/02 13:29:48;;;;;;;4.23;1.50;;;;;;;;;;5013612;28;20704;-78
2022/04/02 13:32:23;;;;;;;2.70;1.10;;;;;;;;;;5012687;28;20209;-78
2022/04/02 13:34:54;;;;;;;2.67;1.60;;;;;;;;;;5009632;28;20291;-78
2022/04/02 13:37:22;;;;;;;2.43;1.53;;;;;;;;;;5009783;28;20233;-79
2022/04/02 13:39:53;;;;;;;1.70;1.20;;;;;;;;;;5016833;28;20720;-78
2022/04/02 13:42:27;;;;;;;3.47;2.20;;;;;;;;;;5026059;28;20207;-79
2022/04/02 13:44:56;;;;;;;3.23;2.73;;;;;;;;;;5014040;28;20201;-78
2022/04/02 13:47:27;;;;;;;1.90;1.60;;;;;;;;;;5018952;28;20197;-78
2022/04/02 13:49:56;;;;;;;26.87;20.50;;;;;;;;;;5026502;28;20258;-77
2022/04/02 13:52:24;;;;;;;36.80;25.80;;;;;;;;;;5029071;28;20576;-78
2022/04/02 13:54:59;;;;;;;10.03;6.80;;;;;;;;;;5026200;28;20202;-76
2022/04/02 13:57:30;;;;;;;6.57;6.00;;;;;;;;;;5015842;28;20289;-77
2022/04/02 14:00:03;;;;;;;3.23;2.83;;;;;;;;;;5009275;28;20224;-78
2022/04/02 14:02:33;;;;;;;4.80;1.60;;;;;;;;;;5019762;28;20292;-77
2022/04/02 14:05:02;;;;;;;2.60;1.60;;;;;;;;;;5014325;28;20254;-77
2022/04/02 14:07:31;;;;;;;2.73;1.40;;;;;;;;;;5070276;28;20200;-77
2022/04/02 14:10:06;;;;;;;21.93;18.00;;;;;;;;;;5096655;28;20601;-77
2022/04/02 14:12:38;;;;;;;11.37;8.30;;;;;;;;;;5100063;28;20218;-77
2022/04/02 14:15:08;;;;;;;9.40;5.40;;;;;;;;;;5102869;28;20201;-78
2022/04/02 14:17:41;;;;;;;24.07;21.63;;;;;;;;;;5111384;28;20194;-77
2022/04/02 14:20:09;;;;;;;4.70;3.47;;;;;;;;;;5099313;28;20306;-78
2022/04/02 14:22:47;;;;;;;14.87;10.33;;;;;;;;;;5107923;28;20285;-78
2022/04/02 14:25:19;;;;;;;11.60;8.27;;;;;;;;;;5095018;28;20290;-77
2022/04/02 14:28:04;;;;;;;8.23;6.23;;;;;;;;;;5104668;28;20202;-77
2022/04/02 14:30:36;;;;;;;7.93;4.30;;;;;;;;;;5051356;28;20196;-77
2022/04/02 14:33:25;;;;;;;3.93;1.43;;;;;;;;;;5050293;28;20227;-77
2022/04/02 14:36:06;;;;;;;5.73;4.40;;;;;;;;;;5042592;28;20234;-77
2022/04/02 14:38:53;;;;;;;3.07;1.87;;;;;;;;;;5052114;28;20298;-77
2022/04/02 14:41:28;;;;;;;9.30;7.87;;;;;;;;;;5052337;28;20245;-78
2022/04/02 14:44:18;;;;;;;2.40;0.90;;;;;;;;;;5052028;28;20703;-77
2022/04/02 14:47:08;;;;;;;4.37;1.13;;;;;;;;;;5052040;28;20245;-79
2022/04/02 14:49:53;;;;;;;4.83;1.63;;;;;;;;;;5048098;28;20278;-79
2022/04/02 14:52:39;;;;;;;3.23;1.20;;;;;;;;;;5052110;28;20362;-78
2022/04/02 14:55:28;;;;;;;2.97;1.10;;;;;;;;;;5051960;28;20204;-78
2022/04/02 14:58:13;;;;;;;2.23;1.13;;;;;;;;;;5050474;28;20282;-78
2022/04/02 15:00:57;;;;;;;3.17;1.00;;;;;;;;;;5051736;28;20642;-78
2022/04/02 15:03:43;;;;;;;3.00;2.03;;;;;;;;;;5031345;28;20286;-78
2022/04/02 15:06:11;;;;;;;4.30;2.60;;;;;;;;;;5050209;28;20650;-78
2022/04/02 15:09:06;;;;;;;8.70;4.60;;;;;;;;;;5097312;28;20713;-78
2022/04/02 15:11:35;;;;;;;6.43;4.40;;;;;;;;;;5111566;28;20198;-78